sensor_id;sensor_type;location;lat;lon;timestamp;P1;durP1;ratioP1;P2;durP2;ratioP2
5718;SDS011;2884;47.734;9.244;2023-04-25T00:00:09;3.37;;;1.90;;
5718;SDS011;2884;47.734;9.244;2023-04-25T00:02:35;6.00;;;2.43;;
5718;SDS011;2884;47.734;9.244;2023-04-25T00:05:01;4.13;;;1.90;;
5718;SDS011;2884;47.734;9.244;2023-04-25T00:07:29;19.77;;;2.10;;
5718;SDS011;2884;47.734;9.244;2023-04-25T00:09:56;4.60;;;1.90;;
5718;SDS011;2884;47.734;9.244;2023-04-25T00:12:22;4.67;;;2.50;;
5718;SDS011;2884;47.734;9.244;2023-04-25T00:14:48;4.77;;;2.17;;
5718;SDS011;2884;47.734;9.244;2023-04-25T00:17:15;2.90;;;2.20;;
5718;SDS011;2884;47.734;9.244;2023-04-25T00:19:42;3.73;;;2.10;;
5718;SDS011;2884;47.734;9.244;2023-04-25T00:22:09;6.23;;;2.60;;
5718;SDS011;2884;47.734;9.244;2023-04-25T00:24:35;4.97;;;2.60;;
5718;SDS011;2884;47.734;9.244;2023-04-25T00:27:01;4.60;;;2.30;;
5718;SDS011;2884;47.734;9.244;2023-04-25T00:29:27;3.00;;;2.00;;
5718;SDS011;2884;47.734;9.244;2023-04-25T00:31:52;4.60;;;2.50;;
5718;SDS011;2884;47.734;9.244;2023-04-25T00:34:18;4.10;;;2.60;;
5718;SDS011;2884;47.734;9.244;2023-04-25T00:36:43;8.93;;;2.00;;
5718;SDS011;2884;47.734;9.244;2023-04-25T00:39:09;5.10;;;2.37;;
5718;SDS011;2884;47.734;9.244;2023-04-25T00:41:34;7.90;;;2.30;;
5718;SDS011;2884;47.734;9.244;2023-04-25T00:44:00;2.00;;;1.80;;
5718;SDS011;2884;47.734;9.244;2023-04-25T00:46:27;6.43;;;2.13;;
5718;SDS011;2884;47.734;9.244;2023-04-25T00:48:54;2.90;;;1.87;;
5718;SDS011;2884;47.734;9.244;2023-04-25T00:51:19;2.20;;;1.80;;
5718;SDS011;2884;47.734;9.244;2023-04-25T00:53:46;2.80;;;1.83;;
5718;SDS011;2884;47.734;9.244;2023-04-25T00:56:13;2.70;;;1.73;;
5718;SDS011;2884;47.734;9.244;2023-04-25T00:58:38;3.33;;;1.50;;
5718;SDS011;2884;47.734;9.244;2023-04-25T01:01:05;4.10;;;1.73;;
5718;SDS011;2884;47.734;9.244;2023-04-25T01:03:32;4.13;;;1.90;;
5718;SDS011;2884;47.734;9.244;2023-04-25T01:06:01;1.63;;;1.53;;
5718;SDS011;2884;47.734;9.244;2023-04-25T01:08:27;3.33;;;1.60;;
5718;SDS011;2884;47.734;9.244;2023-04-25T01:10:52;3.37;;;1.40;;
5718;SDS011;2884;47.734;9.244;2023-04-25T01:13:18;2.23;;;1.57;;
5718;SDS011;2884;47.734;9.244;2023-04-25T01:15:44;2.83;;;1.63;;
5718;SDS011;2884;47.734;9.244;2023-04-25T01:18:09;1.70;;;1.60;;
5718;SDS011;2884;47.734;9.244;2023-04-25T01:20:35;1.80;;;1.67;;
5718;SDS011;2884;47.734;9.244;2023-04-25T01:23:02;1.67;;;1.57;;
5718;SDS011;2884;47.734;9.244;2023-04-25T01:25:28;6.00;;;1.50;;
5718;SDS011;2884;47.734;9.244;2023-04-25T01:27:55;1.60;;;1.50;;
5718;SDS011;2884;47.734;9.244;2023-04-25T01:30:21;1.27;;;1.27;;
5718;SDS011;2884;47.734;9.244;2023-04-25T01:32:47;3.07;;;1.60;;
5718;SDS011;2884;47.734;9.244;2023-04-25T01:35:13;1.57;;;1.47;;
5718;SDS011;2884;47.734;9.244;2023-04-25T01:37:39;1.73;;;1.23;;
5718;SDS011;2884;47.734;9.244;2023-04-25T01:40:07;2.50;;;1.60;;
5718;SDS011;2884;47.734;9.244;2023-04-25T01:42:34;2.40;;;1.37;;
5718;SDS011;2884;47.734;9.244;2023-04-25T01:45:00;1.53;;;1.43;;
5718;SDS011;2884;47.734;9.244;2023-04-25T01:47:26;2.73;;;1.63;;
5718;SDS011;2884;47.734;9.244;2023-04-25T01:49:51;2.63;;;1.90;;
5718;SDS011;2884;47.734;9.244;2023-04-25T01:52:17;2.40;;;1.63;;
5718;SDS011;2884;47.734;9.244;2023-04-25T01:54:43;9.80;;;2.20;;
5718;SDS011;2884;47.734;9.244;2023-04-25T01:57:13;4.50;;;1.43;;
5718;SDS011;2884;47.734;9.244;2023-04-25T01:59:38;3.60;;;2.07;;
5718;SDS011;2884;47.734;9.244;2023-04-25T02:02:04;5.53;;;2.30;;
5718;SDS011;2884;47.734;9.244;2023-04-25T02:04:30;3.10;;;1.90;;
5718;SDS011;2884;47.734;9.244;2023-04-25T02:06:56;5.63;;;1.83;;
5718;SDS011;2884;47.734;9.244;2023-04-25T02:09:22;3.83;;;2.27;;
5718;SDS011;2884;47.734;9.244;2023-04-25T02:11:48;4.40;;;2.03;;
5718;SDS011;2884;47.734;9.244;2023-04-25T02:14:13;2.60;;;2.40;;
5718;SDS011;2884;47.734;9.244;2023-04-25T02:16:39;2.57;;;2.37;;
5718;SDS011;2884;47.734;9.244;2023-04-25T02:19:05;3.80;;;1.67;;
5718;SDS011;2884;47.734;9.244;2023-04-25T02:21:31;3.70;;;2.17;;
5718;SDS011;2884;47.734;9.244;2023-04-25T02:23:57;3.90;;;1.50;;
5718;SDS011;2884;47.734;9.244;2023-04-25T02:26:22;2.73;;;1.80;;
5718;SDS011;2884;47.734;9.244;2023-04-25T02:28:49;3.60;;;1.80;;
5718;SDS011;2884;47.734;9.244;2023-04-25T02:31:15;1.87;;;1.77;;
5718;SDS011;2884;47.734;9.244;2023-04-25T02:33:41;3.40;;;2.53;;
5718;SDS011;2884;47.734;9.244;2023-04-25T02:36:07;5.53;;;2.10;;
5718;SDS011;2884;47.734;9.244;2023-04-25T02:38:32;4.20;;;2.23;;
5718;SDS011;2884;47.734;9.244;2023-04-25T02:40:58;2.40;;;2.20;;
5718;SDS011;2884;47.734;9.244;2023-04-25T02:43:23;2.33;;;2.00;;
5718;SDS011;2884;47.734;9.244;2023-04-25T02:45:49;5.37;;;2.47;;
5718;SDS011;2884;47.734;9.244;2023-04-25T02:48:14;4.83;;;2.40;;
5718;SDS011;2884;47.734;9.244;2023-04-25T02:50:40;2.70;;;2.50;;
5718;SDS011;2884;47.734;9.244;2023-04-25T02:53:05;5.17;;;2.30;;
5718;SDS011;2884;47.734;9.244;2023-04-25T02:55:31;3.00;;;2.33;;
5718;SDS011;2884;47.734;9.244;2023-04-25T02:57:56;4.40;;;2.10;;
5718;SDS011;2884;47.734;9.244;2023-04-25T03:00:22;2.40;;;2.20;;
5718;SDS011;2884;47.734;9.244;2023-04-25T03:02:48;4.10;;;2.27;;
5718;SDS011;2884;47.734;9.244;2023-04-25T03:05:13;2.73;;;2.20;;
5718;SDS011;2884;47.734;9.244;2023-04-25T03:07:39;4.53;;;2.47;;
5718;SDS011;2884;47.734;9.244;2023-04-25T03:10:08;8.27;;;2.53;;
5718;SDS011;2884;47.734;9.244;2023-04-25T03:12:33;3.40;;;2.90;;
5718;SDS011;2884;47.734;9.244;2023-04-25T03:14:59;2.63;;;2.43;;
5718;SDS011;2884;47.734;9.244;2023-04-25T03:17:25;3.30;;;2.33;;
5718;SDS011;2884;47.734;9.244;2023-04-25T03:19:50;3.83;;;2.20;;
5718;SDS011;2884;47.734;9.244;2023-04-25T03:22:16;2.07;;;1.97;;
5718;SDS011;2884;47.734;9.244;2023-04-25T03:24:41;2.30;;;2.10;;
5718;SDS011;2884;47.734;9.244;2023-04-25T03:27:07;2.63;;;2.10;;
5718;SDS011;2884;47.734;9.244;2023-04-25T03:29:32;3.13;;;2.40;;
5718;SDS011;2884;47.734;9.244;2023-04-25T03:31:58;2.80;;;2.60;;
5718;SDS011;2884;47.734;9.244;2023-04-25T03:34:23;2.40;;;2.20;;
5718;SDS011;2884;47.734;9.244;2023-04-25T03:36:49;4.00;;;2.43;;
5718;SDS011;2884;47.734;9.244;2023-04-25T03:39:14;2.90;;;1.90;;
5718;SDS011;2884;47.734;9.244;2023-04-25T03:41:40;3.63;;;2.33;;
5718;SDS011;2884;47.734;9.244;2023-04-25T03:44:06;7.07;;;2.30;;
5718;SDS011;2884;47.734;9.244;2023-04-25T03:46:32;3.13;;;2.83;;
5718;SDS011;2884;47.734;9.244;2023-04-25T03:48:57;3.90;;;2.43;;
5718;SDS011;2884;47.734;9.244;2023-04-25T03:51:24;2.50;;;2.30;;
5718;SDS011;2884;47.734;9.244;2023-04-25T03:53:51;2.10;;;2.00;;
5718;SDS011;2884;47.734;9.244;2023-04-25T03:56:17;4.90;;;2.83;;
5718;SDS011;2884;47.734;9.244;2023-04-25T03:58:42;4.00;;;2.13;;
5718;SDS011;2884;47.734;9.244;2023-04-25T04:01:08;3.20;;;2.30;;
5718;SDS011;2884;47.734;9.244;2023-04-25T04:03:34;5.00;;;2.10;;
5718;SDS011;2884;47.734;9.244;2023-04-25T04:06:01;2.60;;;2.40;;
5718;SDS011;2884;47.734;9.244;2023-04-25T04:08:30;3.13;;;2.70;;
5718;SDS011;2884;47.734;9.244;2023-04-25T04:10:57;7.95;;;2.60;;
5718;SDS011;2884;47.734;9.244;2023-04-25T04:13:23;2.45;;;2.25;;
5718;SDS011;2884;47.734;9.244;2023-04-25T04:15:50;2.20;;;2.00;;
5718;SDS011;2884;47.734;9.244;2023-04-25T04:18:15;2.07;;;1.80;;
5718;SDS011;2884;47.734;9.244;2023-04-25T04:20:41;6.70;;;2.60;;
5718;SDS011;2884;47.734;9.244;2023-04-25T04:23:06;4.83;;;2.63;;
5718;SDS011;2884;47.734;9.244;2023-04-25T04:25:32;3.43;;;2.93;;
5718;SDS011;2884;47.734;9.244;2023-04-25T04:27:58;7.20;;;2.07;;
5718;SDS011;2884;47.734;9.244;2023-04-25T04:30:23;2.43;;;2.33;;
5718;SDS011;2884;47.734;9.244;2023-04-25T04:32:52;3.55;;;2.60;;
5718;SDS011;2884;47.734;9.244;2023-04-25T04:35:18;3.22;;;2.63;;
5718;SDS011;2884;47.734;9.244;2023-04-25T04:37:44;5.33;;;2.70;;
5718;SDS011;2884;47.734;9.244;2023-04-25T04:40:10;4.95;;;3.38;;
5718;SDS011;2884;47.734;9.244;2023-04-25T04:42:36;4.35;;;2.80;;
5718;SDS011;2884;47.734;9.244;2023-04-25T04:45:02;3.43;;;3.23;;
5718;SDS011;2884;47.734;9.244;2023-04-25T04:47:29;3.00;;;2.80;;
5718;SDS011;2884;47.734;9.244;2023-04-25T04:49:59;3.42;;;3.13;;
5718;SDS011;2884;47.734;9.244;2023-04-25T04:52:24;3.23;;;2.93;;
5718;SDS011;2884;47.734;9.244;2023-04-25T04:54:50;2.93;;;2.73;;
5718;SDS011;2884;47.734;9.244;2023-04-25T04:57:16;3.17;;;2.80;;
5718;SDS011;2884;47.734;9.244;2023-04-25T04:59:47;3.37;;;2.47;;
5718;SDS011;2884;47.734;9.244;2023-04-25T05:02:15;3.33;;;2.73;;
5718;SDS011;2884;47.734;9.244;2023-04-25T05:04:41;2.87;;;2.27;;
5718;SDS011;2884;47.734;9.244;2023-04-25T05:07:06;2.83;;;2.13;;
5718;SDS011;2884;47.734;9.244;2023-04-25T05:09:32;2.67;;;2.47;;
5718;SDS011;2884;47.734;9.244;2023-04-25T05:12:00;2.60;;;2.40;;
5718;SDS011;2884;47.734;9.244;2023-04-25T05:14:26;2.63;;;2.43;;
5718;SDS011;2884;47.734;9.244;2023-04-25T05:16:54;3.30;;;2.70;;
5718;SDS011;2884;47.734;9.244;2023-04-25T05:19:20;3.70;;;2.97;;
5718;SDS011;2884;47.734;9.244;2023-04-25T05:21:45;3.87;;;3.50;;
5718;SDS011;2884;47.734;9.244;2023-04-25T05:24:11;5.27;;;3.00;;
5718;SDS011;2884;47.734;9.244;2023-04-25T05:26:37;4.70;;;2.37;;
5718;SDS011;2884;47.734;9.244;2023-04-25T05:29:02;4.57;;;3.30;;
5718;SDS011;2884;47.734;9.244;2023-04-25T05:31:28;3.40;;;2.73;;
5718;SDS011;2884;47.734;9.244;2023-04-25T05:33:53;2.73;;;2.53;;
5718;SDS011;2884;47.734;9.244;2023-04-25T05:36:19;2.87;;;2.53;;
5718;SDS011;2884;47.734;9.244;2023-04-25T05:38:45;6.07;;;2.97;;
5718;SDS011;2884;47.734;9.244;2023-04-25T05:41:10;5.90;;;3.47;;
5718;SDS011;2884;47.734;9.244;2023-04-25T05:43:36;7.67;;;3.30;;
5718;SDS011;2884;47.734;9.244;2023-04-25T05:46:01;3.10;;;2.80;;
5718;SDS011;2884;47.734;9.244;2023-04-25T05:48:27;5.90;;;3.30;;
5718;SDS011;2884;47.734;9.244;2023-04-25T05:50:53;5.20;;;2.90;;
5718;SDS011;2884;47.734;9.244;2023-04-25T05:53:19;2.33;;;2.20;;
5718;SDS011;2884;47.734;9.244;2023-04-25T05:55:46;3.43;;;2.43;;
5718;SDS011;2884;47.734;9.244;2023-04-25T05:58:12;3.83;;;2.97;;
5718;SDS011;2884;47.734;9.244;2023-04-25T06:00:37;4.00;;;2.80;;
5718;SDS011;2884;47.734;9.244;2023-04-25T06:03:03;7.33;;;3.20;;
5718;SDS011;2884;47.734;9.244;2023-04-25T06:05:29;2.87;;;2.67;;
5718;SDS011;2884;47.734;9.244;2023-04-25T06:07:55;7.57;;;3.70;;
5718;SDS011;2884;47.734;9.244;2023-04-25T06:10:20;2.23;;;2.13;;
5718;SDS011;2884;47.734;9.244;2023-04-25T06:12:47;7.63;;;2.63;;
5718;SDS011;2884;47.734;9.244;2023-04-25T06:15:14;2.87;;;2.03;;
5718;SDS011;2884;47.734;9.244;2023-04-25T06:17:41;3.57;;;2.40;;
5718;SDS011;2884;47.734;9.244;2023-04-25T06:20:06;7.27;;;2.63;;
5718;SDS011;2884;47.734;9.244;2023-04-25T06:22:33;3.37;;;2.70;;
5718;SDS011;2884;47.734;9.244;2023-04-25T06:24:59;3.60;;;2.67;;
5718;SDS011;2884;47.734;9.244;2023-04-25T06:27:25;4.20;;;2.70;;
5718;SDS011;2884;47.734;9.244;2023-04-25T06:29:51;2.77;;;2.20;;
5718;SDS011;2884;47.734;9.244;2023-04-25T06:32:16;3.37;;;2.10;;
5718;SDS011;2884;47.734;9.244;2023-04-25T06:34:43;5.67;;;2.57;;
5718;SDS011;2884;47.734;9.244;2023-04-25T06:37:08;7.93;;;3.33;;
5718;SDS011;2884;47.734;9.244;2023-04-25T06:39:34;6.23;;;2.70;;
5718;SDS011;2884;47.734;9.244;2023-04-25T06:42:00;4.97;;;2.73;;
5718;SDS011;2884;47.734;9.244;2023-04-25T06:44:25;4.23;;;2.50;;
5718;SDS011;2884;47.734;9.244;2023-04-25T06:46:51;3.73;;;2.53;;
5718;SDS011;2884;47.734;9.244;2023-04-25T06:49:17;3.00;;;2.80;;
5718;SDS011;2884;47.734;9.244;2023-04-25T06:51:42;3.50;;;2.20;;
5718;SDS011;2884;47.734;9.244;2023-04-25T06:54:08;3.63;;;2.77;;
5718;SDS011;2884;47.734;9.244;2023-04-25T06:56:33;2.73;;;2.40;;
5718;SDS011;2884;47.734;9.244;2023-04-25T06:58:59;6.70;;;2.93;;
5718;SDS011;2884;47.734;9.244;2023-04-25T07:01:26;4.57;;;2.90;;
5718;SDS011;2884;47.734;9.244;2023-04-25T07:03:51;11.53;;;3.27;;
5718;SDS011;2884;47.734;9.244;2023-04-25T07:06:17;10.90;;;4.40;;
5718;SDS011;2884;47.734;9.244;2023-04-25T07:08:42;5.33;;;2.73;;
5718;SDS011;2884;47.734;9.244;2023-04-25T07:11:08;7.40;;;2.50;;
5718;SDS011;2884;47.734;9.244;2023-04-25T07:13:33;6.73;;;3.03;;
5718;SDS011;2884;47.734;9.244;2023-04-25T07:15:59;17.37;;;3.87;;
5718;SDS011;2884;47.734;9.244;2023-04-25T07:18:25;4.40;;;2.80;;
5718;SDS011;2884;47.734;9.244;2023-04-25T07:20:50;8.10;;;3.50;;
5718;SDS011;2884;47.734;9.244;2023-04-25T07:23:16;6.27;;;2.80;;
5718;SDS011;2884;47.734;9.244;2023-04-25T07:25:42;3.97;;;2.70;;
5718;SDS011;2884;47.734;9.244;2023-04-25T07:28:07;6.23;;;2.80;;
5718;SDS011;2884;47.734;9.244;2023-04-25T07:30:33;13.03;;;3.37;;
5718;SDS011;2884;47.734;9.244;2023-04-25T07:32:59;7.47;;;3.37;;
5718;SDS011;2884;47.734;9.244;2023-04-25T07:35:25;6.67;;;3.13;;
5718;SDS011;2884;47.734;9.244;2023-04-25T07:37:51;5.90;;;3.23;;
5718;SDS011;2884;47.734;9.244;2023-04-25T07:40:16;5.57;;;2.60;;
5718;SDS011;2884;47.734;9.244;2023-04-25T07:42:42;7.47;;;3.17;;
5718;SDS011;2884;47.734;9.244;2023-04-25T07:45:08;7.37;;;2.87;;
5718;SDS011;2884;47.734;9.244;2023-04-25T07:47:34;11.80;;;2.67;;
5718;SDS011;2884;47.734;9.244;2023-04-25T07:50:00;6.70;;;2.60;;
5718;SDS011;2884;47.734;9.244;2023-04-25T07:52:26;6.43;;;2.67;;
5718;SDS011;2884;47.734;9.244;2023-04-25T07:54:51;4.77;;;2.70;;
5718;SDS011;2884;47.734;9.244;2023-04-25T07:57:17;3.30;;;2.20;;
5718;SDS011;2884;47.734;9.244;2023-04-25T07:59:43;3.33;;;2.17;;
5718;SDS011;2884;47.734;9.244;2023-04-25T08:02:09;3.63;;;2.33;;
5718;SDS011;2884;47.734;9.244;2023-04-25T08:04:34;3.60;;;3.27;;
5718;SDS011;2884;47.734;9.244;2023-04-25T08:07:00;2.00;;;1.73;;
5718;SDS011;2884;47.734;9.244;2023-04-25T08:09:26;3.30;;;2.07;;
5718;SDS011;2884;47.734;9.244;2023-04-25T08:11:51;3.30;;;1.10;;
5718;SDS011;2884;47.734;9.244;2023-04-25T08:14:17;1.70;;;1.50;;
5718;SDS011;2884;47.734;9.244;2023-04-25T08:16:42;1.90;;;1.70;;
5718;SDS011;2884;47.734;9.244;2023-04-25T08:19:08;1.57;;;1.47;;
5718;SDS011;2884;47.734;9.244;2023-04-25T08:21:35;5.30;;;2.50;;
5718;SDS011;2884;47.734;9.244;2023-04-25T08:24:01;3.50;;;2.17;;
5718;SDS011;2884;47.734;9.244;2023-04-25T08:26:26;2.40;;;1.83;;
5718;SDS011;2884;47.734;9.244;2023-04-25T08:28:52;2.23;;;1.93;;
5718;SDS011;2884;47.734;9.244;2023-04-25T08:31:17;4.20;;;2.13;;
5718;SDS011;2884;47.734;9.244;2023-04-25T08:33:43;1.93;;;1.83;;
5718;SDS011;2884;47.734;9.244;2023-04-25T08:36:10;3.03;;;2.20;;
5718;SDS011;2884;47.734;9.244;2023-04-25T08:38:35;4.27;;;2.27;;
5718;SDS011;2884;47.734;9.244;2023-04-25T08:41:01;2.83;;;2.27;;
5718;SDS011;2884;47.734;9.244;2023-04-25T08:43:27;2.00;;;1.80;;
5718;SDS011;2884;47.734;9.244;2023-04-25T08:45:54;4.20;;;2.13;;
5718;SDS011;2884;47.734;9.244;2023-04-25T08:48:24;4.73;;;2.57;;
5718;SDS011;2884;47.734;9.244;2023-04-25T08:50:53;4.40;;;1.93;;
5718;SDS011;2884;47.734;9.244;2023-04-25T08:53:25;7.07;;;3.10;;
5718;SDS011;2884;47.734;9.244;2023-04-25T08:55:53;4.23;;;2.07;;
5718;SDS011;2884;47.734;9.244;2023-04-25T08:58:20;4.03;;;1.73;;
5718;SDS011;2884;47.734;9.244;2023-04-25T09:00:46;1.50;;;1.40;;
5718;SDS011;2884;47.734;9.244;2023-04-25T09:03:12;1.47;;;1.37;;
5718;SDS011;2884;47.734;9.244;2023-04-25T09:05:37;7.03;;;1.70;;
5718;SDS011;2884;47.734;9.244;2023-04-25T09:08:05;2.07;;;1.87;;
5718;SDS011;2884;47.734;9.244;2023-04-25T09:10:31;9.00;;;2.40;;
5718;SDS011;2884;47.734;9.244;2023-04-25T09:13:10;7.93;;;3.10;;
5718;SDS011;2884;47.734;9.244;2023-04-25T09:15:50;1.70;;;1.47;;
5718;SDS011;2884;47.734;9.244;2023-04-25T09:18:27;1.13;;;1.13;;
5718;SDS011;2884;47.734;9.244;2023-04-25T09:20:57;1.70;;;1.50;;
5718;SDS011;2884;47.734;9.244;2023-04-25T09:23:30;2.70;;;1.93;;
5718;SDS011;2884;47.734;9.244;2023-04-25T09:25:55;4.17;;;2.83;;
5718;SDS011;2884;47.734;9.244;2023-04-25T09:28:25;2.77;;;2.20;;
5718;SDS011;2884;47.734;9.244;2023-04-25T09:30:54;1.60;;;1.50;;
5718;SDS011;2884;47.734;9.244;2023-04-25T09:33:28;2.80;;;1.90;;
5718;SDS011;2884;47.734;9.244;2023-04-25T09:36:01;3.07;;;1.57;;
5718;SDS011;2884;47.734;9.244;2023-04-25T09:38:40;2.97;;;1.90;;
5718;SDS011;2884;47.734;9.244;2023-04-25T09:41:09;1.60;;;1.50;;
5718;SDS011;2884;47.734;9.244;2023-04-25T09:43:35;9.53;;;2.20;;
5718;SDS011;2884;47.734;9.244;2023-04-25T09:46:01;2.47;;;1.73;;
5718;SDS011;2884;47.734;9.244;2023-04-25T09:48:27;3.00;;;2.00;;
5718;SDS011;2884;47.734;9.244;2023-04-25T09:53:28;1.67;;;1.57;;
5718;SDS011;2884;47.734;9.244;2023-04-25T09:55:53;1.73;;;1.63;;
5718;SDS011;2884;47.734;9.244;2023-04-25T09:58:21;1.33;;;1.33;;
5718;SDS011;2884;47.734;9.244;2023-04-25T10:00:49;1.20;;;1.20;;
5718;SDS011;2884;47.734;9.244;2023-04-25T10:03:17;1.53;;;1.37;;
5718;SDS011;2884;47.734;9.244;2023-04-25T10:05:43;5.83;;;1.80;;
5718;SDS011;2884;47.734;9.244;2023-04-25T10:08:08;1.90;;;1.63;;
5718;SDS011;2884;47.734;9.244;2023-04-25T10:10:35;1.80;;;1.30;;
5718;SDS011;2884;47.734;9.244;2023-04-25T10:13:04;2.50;;;1.93;;
5718;SDS011;2884;47.734;9.244;2023-04-25T10:15:35;2.97;;;1.50;;
5718;SDS011;2884;47.734;9.244;2023-04-25T10:18:01;1.30;;;1.20;;
5718;SDS011;2884;47.734;9.244;2023-04-25T10:20:28;8.10;;;1.20;;
5718;SDS011;2884;47.734;9.244;2023-04-25T10:22:54;1.20;;;1.20;;
5718;SDS011;2884;47.734;9.244;2023-04-25T10:25:22;2.60;;;1.10;;
5718;SDS011;2884;47.734;9.244;2023-04-25T10:27:50;1.60;;;1.50;;
5718;SDS011;2884;47.734;9.244;2023-04-25T10:30:16;1.37;;;1.30;;
5718;SDS011;2884;47.734;9.244;2023-04-25T10:32:43;1.47;;;1.30;;
5718;SDS011;2884;47.734;9.244;2023-04-25T10:35:14;1.57;;;1.47;;
5718;SDS011;2884;47.734;9.244;2023-04-25T10:38:02;4.90;;;2.30;;
5718;SDS011;2884;47.734;9.244;2023-04-25T10:40:30;3.73;;;2.70;;
5718;SDS011;2884;47.734;9.244;2023-04-25T10:43:33;1.60;;;1.47;;
5718;SDS011;2884;47.734;9.244;2023-04-25T10:46:01;1.60;;;1.50;;
5718;SDS011;2884;47.734;9.244;2023-04-25T10:48:29;2.87;;;1.90;;
5718;SDS011;2884;47.734;9.244;2023-04-25T10:51:11;2.20;;;1.80;;
5718;SDS011;2884;47.734;9.244;2023-04-25T10:53:37;2.40;;;1.67;;
5718;SDS011;2884;47.734;9.244;2023-04-25T10:56:36;1.50;;;1.40;;
5718;SDS011;2884;47.734;9.244;2023-04-25T10:59:03;1.53;;;1.43;;
5718;SDS011;2884;47.734;9.244;2023-04-25T11:01:37;1.13;;;1.03;;
5718;SDS011;2884;47.734;9.244;2023-04-25T11:04:18;2.30;;;0.90;;
5718;SDS011;2884;47.734;9.244;2023-04-25T11:09:17;1.17;;;0.80;;
5718;SDS011;2884;47.734;9.244;2023-04-25T11:11:42;0.97;;;0.97;;
5718;SDS011;2884;47.734;9.244;2023-04-25T11:14:19;1.37;;;0.93;;
5718;SDS011;2884;47.734;9.244;2023-04-25T11:16:45;2.00;;;0.83;;
5718;SDS011;2884;47.734;9.244;2023-04-25T11:19:10;0.73;;;0.73;;
5718;SDS011;2884;47.734;9.244;2023-04-25T11:21:36;1.40;;;1.30;;
5718;SDS011;2884;47.734;9.244;2023-04-25T11:24:02;6.53;;;0.80;;
5718;SDS011;2884;47.734;9.244;2023-04-25T11:26:27;2.50;;;0.90;;
5718;SDS011;2884;47.734;9.244;2023-04-25T11:28:56;1.20;;;0.83;;
5718;SDS011;2884;47.734;9.244;2023-04-25T11:31:24;0.67;;;0.67;;
5718;SDS011;2884;47.734;9.244;2023-04-25T11:33:50;0.73;;;0.70;;
5718;SDS011;2884;47.734;9.244;2023-04-25T11:36:16;1.00;;;0.90;;
5718;SDS011;2884;47.734;9.244;2023-04-25T11:38:42;0.73;;;0.70;;
5718;SDS011;2884;47.734;9.244;2023-04-25T11:41:07;0.63;;;0.63;;
5718;SDS011;2884;47.734;9.244;2023-04-25T11:43:33;0.80;;;0.70;;
5718;SDS011;2884;47.734;9.244;2023-04-25T11:45:59;0.60;;;0.60;;
5718;SDS011;2884;47.734;9.244;2023-04-25T11:48:24;0.60;;;0.60;;
5718;SDS011;2884;47.734;9.244;2023-04-25T11:50:50;0.70;;;0.70;;
5718;SDS011;2884;47.734;9.244;2023-04-25T11:53:17;0.80;;;0.80;;
5718;SDS011;2884;47.734;9.244;2023-04-25T11:55:43;0.60;;;0.60;;
5718;SDS011;2884;47.734;9.244;2023-04-25T11:58:08;0.60;;;0.60;;
5718;SDS011;2884;47.734;9.244;2023-04-25T12:00:35;0.50;;;0.50;;
5718;SDS011;2884;47.734;9.244;2023-04-25T12:03:01;0.50;;;0.50;;
5718;SDS011;2884;47.734;9.244;2023-04-25T12:05:29;0.60;;;0.60;;
5718;SDS011;2884;47.734;9.244;2023-04-25T12:07:55;1.47;;;0.50;;
5718;SDS011;2884;47.734;9.244;2023-04-25T12:10:21;0.50;;;0.50;;
5718;SDS011;2884;47.734;9.244;2023-04-25T12:12:47;0.50;;;0.50;;
5718;SDS011;2884;47.734;9.244;2023-04-25T12:17:47;2.27;;;0.50;;
5718;SDS011;2884;47.734;9.244;2023-04-25T12:20:18;1.43;;;0.60;;
5718;SDS011;2884;47.734;9.244;2023-04-25T12:22:52;0.67;;;0.60;;
5718;SDS011;2884;47.734;9.244;2023-04-25T12:28:22;2.50;;;0.70;;
5718;SDS011;2884;47.734;9.244;2023-04-25T12:31:05;0.63;;;0.50;;
5718;SDS011;2884;47.734;9.244;2023-04-25T12:33:35;0.50;;;0.50;;
5718;SDS011;2884;47.734;9.244;2023-04-25T12:36:02;0.80;;;0.60;;
5718;SDS011;2884;47.734;9.244;2023-04-25T12:38:35;0.40;;;0.40;;
5718;SDS011;2884;47.734;9.244;2023-04-25T12:41:02;0.40;;;0.40;;
5718;SDS011;2884;47.734;9.244;2023-04-25T12:43:28;0.50;;;0.50;;
5718;SDS011;2884;47.734;9.244;2023-04-25T12:45:53;0.50;;;0.40;;
5718;SDS011;2884;47.734;9.244;2023-04-25T12:48:20;0.40;;;0.40;;
5718;SDS011;2884;47.734;9.244;2023-04-25T12:50:46;0.50;;;0.50;;
5718;SDS011;2884;47.734;9.244;2023-04-25T12:53:16;0.50;;;0.50;;
5718;SDS011;2884;47.734;9.244;2023-04-25T12:55:42;0.43;;;0.43;;
5718;SDS011;2884;47.734;9.244;2023-04-25T12:58:08;0.50;;;0.50;;
5718;SDS011;2884;47.734;9.244;2023-04-25T13:00:33;0.60;;;0.60;;
5718;SDS011;2884;47.734;9.244;2023-04-25T13:02:59;2.23;;;0.97;;
5718;SDS011;2884;47.734;9.244;2023-04-25T13:05:25;0.60;;;0.60;;
5718;SDS011;2884;47.734;9.244;2023-04-25T13:07:50;1.07;;;0.70;;
5718;SDS011;2884;47.734;9.244;2023-04-25T13:10:23;0.50;;;0.50;;
5718;SDS011;2884;47.734;9.244;2023-04-25T13:12:48;0.60;;;0.60;;
5718;SDS011;2884;47.734;9.244;2023-04-25T13:15:14;1.23;;;0.50;;
5718;SDS011;2884;47.734;9.244;2023-04-25T13:17:40;0.50;;;0.50;;
5718;SDS011;2884;47.734;9.244;2023-04-25T13:20:07;1.90;;;0.63;;
5718;SDS011;2884;47.734;9.244;2023-04-25T13:22:34;0.50;;;0.50;;
5718;SDS011;2884;47.734;9.244;2023-04-25T13:25:04;0.87;;;0.50;;
5718;SDS011;2884;47.734;9.244;2023-04-25T13:27:31;0.50;;;0.50;;
5718;SDS011;2884;47.734;9.244;2023-04-25T13:29:58;1.90;;;0.70;;
5718;SDS011;2884;47.734;9.244;2023-04-25T13:32:23;0.60;;;0.60;;
5718;SDS011;2884;47.734;9.244;2023-04-25T13:34:50;2.60;;;0.60;;
5718;SDS011;2884;47.734;9.244;2023-04-25T13:37:16;1.27;;;0.70;;
5718;SDS011;2884;47.734;9.244;2023-04-25T13:39:42;1.40;;;0.77;;
5718;SDS011;2884;47.734;9.244;2023-04-25T13:42:07;0.90;;;0.70;;
5718;SDS011;2884;47.734;9.244;2023-04-25T13:44:33;0.60;;;0.60;;
5718;SDS011;2884;47.734;9.244;2023-04-25T13:47:01;0.87;;;0.83;;
5718;SDS011;2884;47.734;9.244;2023-04-25T13:49:27;8.43;;;0.73;;
5718;SDS011;2884;47.734;9.244;2023-04-25T13:51:52;2.10;;;0.80;;
5718;SDS011;2884;47.734;9.244;2023-04-25T13:54:17;0.70;;;0.53;;
5718;SDS011;2884;47.734;9.244;2023-04-25T13:56:43;1.70;;;0.70;;
5718;SDS011;2884;47.734;9.244;2023-04-25T13:59:09;0.83;;;0.67;;
5718;SDS011;2884;47.734;9.244;2023-04-25T14:01:35;0.67;;;0.67;;
5718;SDS011;2884;47.734;9.244;2023-04-25T14:04:01;1.10;;;0.70;;
5718;SDS011;2884;47.734;9.244;2023-04-25T14:06:28;1.97;;;0.90;;
5718;SDS011;2884;47.734;9.244;2023-04-25T14:08:54;1.07;;;0.83;;
5718;SDS011;2884;47.734;9.244;2023-04-25T14:11:20;0.60;;;0.60;;
5718;SDS011;2884;47.734;9.244;2023-04-25T14:13:45;0.60;;;0.60;;
5718;SDS011;2884;47.734;9.244;2023-04-25T14:16:11;2.67;;;0.80;;
5718;SDS011;2884;47.734;9.244;2023-04-25T14:18:37;1.27;;;0.70;;
5718;SDS011;2884;47.734;9.244;2023-04-25T14:21:02;1.43;;;1.20;;
5718;SDS011;2884;47.734;9.244;2023-04-25T14:23:27;0.80;;;0.60;;
5718;SDS011;2884;47.734;9.244;2023-04-25T14:25:53;0.73;;;0.73;;
5718;SDS011;2884;47.734;9.244;2023-04-25T14:28:19;1.80;;;0.83;;
5718;SDS011;2884;47.734;9.244;2023-04-25T14:30:45;1.57;;;0.80;;
5718;SDS011;2884;47.734;9.244;2023-04-25T14:33:10;3.53;;;0.70;;
5718;SDS011;2884;47.734;9.244;2023-04-25T14:35:36;1.03;;;0.83;;
5718;SDS011;2884;47.734;9.244;2023-04-25T14:38:02;1.70;;;0.77;;
5718;SDS011;2884;47.734;9.244;2023-04-25T14:40:28;1.33;;;0.70;;
5718;SDS011;2884;47.734;9.244;2023-04-25T14:42:53;0.80;;;0.80;;
5718;SDS011;2884;47.734;9.244;2023-04-25T14:45:19;0.97;;;0.87;;
5718;SDS011;2884;47.734;9.244;2023-04-25T14:47:45;1.47;;;1.20;;
5718;SDS011;2884;47.734;9.244;2023-04-25T14:50:10;0.80;;;0.80;;
5718;SDS011;2884;47.734;9.244;2023-04-25T14:52:36;1.37;;;1.17;;
5718;SDS011;2884;47.734;9.244;2023-04-25T14:55:02;2.03;;;1.20;;
5718;SDS011;2884;47.734;9.244;2023-04-25T14:57:33;0.97;;;0.90;;
5718;SDS011;2884;47.734;9.244;2023-04-25T14:59:59;4.70;;;0.90;;
5718;SDS011;2884;47.734;9.244;2023-04-25T15:02:25;1.77;;;1.00;;
5718;SDS011;2884;47.734;9.244;2023-04-25T15:04:51;0.90;;;0.70;;
5718;SDS011;2884;47.734;9.244;2023-04-25T15:07:17;2.20;;;1.17;;
5718;SDS011;2884;47.734;9.244;2023-04-25T15:09:43;3.23;;;1.00;;
5718;SDS011;2884;47.734;9.244;2023-04-25T15:12:08;0.70;;;0.70;;
5718;SDS011;2884;47.734;9.244;2023-04-25T15:14:34;1.43;;;0.97;;
5718;SDS011;2884;47.734;9.244;2023-04-25T15:17:00;0.80;;;0.80;;
5718;SDS011;2884;47.734;9.244;2023-04-25T15:19:25;1.10;;;0.93;;
5718;SDS011;2884;47.734;9.244;2023-04-25T15:21:51;1.70;;;0.97;;